Time;durP1;ratioP1;P1;durP2;ratioP2;P2;SDS_P1;SDS_P2;PMS_P1;PMS_P2;Temp;Humidity;BMP_temperature;BMP_pressure;BME280_temperature;BME280_humidity;BME280_pressure;Samples;Min_cycle;Max_cycle;Signal;HPM_P1;HPM_P2
2022/07/05 00:01:54;;;;;;;3.10;1.25;;;15.50;99.90;;;;;;5005749;28;20394;-69
2022/07/05 00:04:19;;;;;;;1.23;0.77;;;15.40;99.90;;;;;;5005827;28;20061;-70
2022/07/05 00:09:29;;;;;;;0.98;0.63;;;15.40;99.90;;;;;;5005033;28;20029;-68
2022/07/05 00:11:55;;;;;;;2.53;1.13;;;15.40;99.90;;;;;;5005528;28;20031;-69
2022/07/05 00:14:22;;;;;;;1.58;1.05;;;15.50;99.90;;;;;;5005467;28;20018;-69
2022/07/05 00:16:49;;;;;;;8.40;1.02;;;15.50;99.90;;;;;;5005699;28;20022;-68
2022/07/05 00:19:15;;;;;;;1.42;0.70;;;15.40;99.90;;;;;;5005302;28;20429;-68
2022/07/05 00:21:40;;;;;;;1.13;0.73;;;15.40;99.90;;;;;;5004096;28;20093;-68
2022/07/05 00:24:06;;;;;;;1.02;0.75;;;15.40;99.90;;;;;;5004994;28;20549;-68
2022/07/05 00:26:31;;;;;;;1.08;0.75;;;15.40;99.90;;;;;;5005405;28;20022;-68
2022/07/05 00:28:57;;;;;;;1.92;0.88;;;15.40;99.90;;;;;;5005426;28;20054;-68
2022/07/05 00:31:23;;;;;;;4.43;1.02;;;15.40;99.90;;;;;;5004454;28;20402;-69
2022/07/05 00:33:48;;;;;;;2.28;0.80;;;15.30;99.90;;;;;;5003177;28;20033;-69
2022/07/05 00:36:14;;;;;;;3.65;1.50;;;15.30;99.90;;;;;;5004260;28;20030;-68
2022/07/05 00:38:39;;;;;;;1.27;0.70;;;15.30;99.90;;;;;;5003970;28;20050;-70
2022/07/05 00:41:05;;;;;;;1.08;0.60;;;15.30;99.90;;;;;;5003811;28;20031;-69
2022/07/05 00:43:31;;;;;;;0.70;0.65;;;15.20;99.90;;;;;;5003824;28;20100;-68
2022/07/05 00:45:56;;;;;;;3.72;1.15;;;15.20;99.90;;;;;;5004875;28;20026;-69
2022/07/05 00:48:22;;;;;;;2.05;0.90;;;15.10;99.90;;;;;;5004907;28;20026;-70
2022/07/05 00:50:50;;;;;;;1.25;0.75;;;15.10;99.90;;;;;;5005232;28;20058;-68
2022/07/05 00:53:15;;;;;;;6.53;1.15;;;15.10;99.90;;;;;;5004603;28;20046;-68
2022/07/05 00:55:45;;;;;;;3.30;1.48;;;15.10;99.90;;;;;;5004986;28;20061;-69
2022/07/05 00:58:11;;;;;;;1.60;1.08;;;15.00;99.90;;;;;;5004315;28;20018;-69
2022/07/05 01:00:37;;;;;;;2.47;1.20;;;15.00;99.90;;;;;;5004922;28;20065;-69
2022/07/05 01:03:04;;;;;;;2.22;1.08;;;15.00;99.90;;;;;;5004300;28;20034;-69
2022/07/05 01:05:31;;;;;;;6.13;1.33;;;14.90;99.90;;;;;;5003432;28;20026;-68
2022/07/05 01:08:00;;;;;;;1.98;0.82;;;14.90;99.90;;;;;;5002631;28;20030;-69
2022/07/05 01:10:26;;;;;;;3.42;1.20;;;14.90;99.90;;;;;;5004393;28;20054;-69
2022/07/05 01:12:53;;;;;;;2.25;1.30;;;14.90;99.90;;;;;;5003985;28;20022;-70
2022/07/05 01:15:21;;;;;;;3.03;1.20;;;14.80;99.90;;;;;;5004556;28;20138;-71
2022/07/05 01:17:47;;;;;;;2.67;1.45;;;14.80;99.90;;;;;;5004427;28;20034;-69
2022/07/05 01:20:14;;;;;;;2.28;1.23;;;14.80;99.90;;;;;;5003719;28;20041;-69
2022/07/05 01:22:56;;;;;;;2.70;1.40;;;14.80;99.90;;;;;;5004321;28;20030;-68
2022/07/05 01:25:24;;;;;;;5.40;2.08;;;14.70;99.90;;;;;;5004029;28;20030;-70
2022/07/05 01:27:51;;;;;;;2.42;1.30;;;14.70;99.90;;;;;;5003503;28;20030;-71
2022/07/05 01:30:17;;;;;;;6.15;1.13;;;14.60;99.90;;;;;;5004485;28;20520;-70
2022/07/05 01:32:43;;;;;;;3.38;1.90;;;14.60;99.90;;;;;;5004103;28;20114;-69
2022/07/05 01:35:11;;;;;;;2.33;1.67;;;14.60;99.90;;;;;;5003952;28;20030;-70
2022/07/05 01:37:37;;;;;;;5.93;1.90;;;14.50;99.90;;;;;;5003841;28;20109;-69
2022/07/05 01:40:04;;;;;;;3.25;1.52;;;14.50;99.90;;;;;;5003132;28;20034;-69
2022/07/05 01:42:30;;;;;;;5.82;1.92;;;14.50;99.90;;;;;;5003552;28;20093;-69
2022/07/05 01:44:56;;;;;;;2.17;1.38;;;14.40;99.90;;;;;;5003954;28;20053;-68
2022/07/05 01:47:23;;;;;;;3.22;1.42;;;14.40;99.90;;;;;;5003929;28;20034;-69
2022/07/05 01:49:53;;;;;;;1.92;1.38;;;14.40;99.90;;;;;;5003418;28;20030;-68
2022/07/05 01:52:21;;;;;;;4.28;1.75;;;14.40;99.90;;;;;;5002897;28;20030;-69
2022/07/05 01:54:47;;;;;;;2.22;1.27;;;14.40;99.90;;;;;;5003626;28;20585;-69
2022/07/05 01:57:12;;;;;;;2.20;1.75;;;14.30;99.90;;;;;;5003460;28;20155;-69
2022/07/05 01:59:39;;;;;;;6.65;1.70;;;14.30;99.90;;;;;;5003783;28;20030;-68
2022/07/05 02:02:07;;;;;;;1.90;1.48;;;14.30;99.90;;;;;;5001226;28;20035;-68
2022/07/05 02:04:34;;;;;;;2.33;1.58;;;14.20;99.90;;;;;;5003263;28;20223;-68
2022/07/05 02:07:07;;;;;;;3.10;1.85;;;14.20;99.90;;;;;;5002061;28;20029;-69
2022/07/05 02:09:33;;;;;;;5.50;1.67;;;14.10;99.90;;;;;;5002220;28;20038;-70
2022/07/05 02:11:59;;;;;;;2.22;1.45;;;14.10;99.90;;;;;;5003432;28;20034;-68
2022/07/05 02:14:25;;;;;;;10.65;2.08;;;14.10;99.90;;;;;;5002678;28;20467;-70
2022/07/05 02:16:51;;;;;;;2.92;1.48;;;14.10;99.90;;;;;;5003331;28;20031;-68
2022/07/05 02:19:16;;;;;;;2.88;1.73;;;14.10;99.90;;;;;;5003632;28;20026;-68
2022/07/05 02:21:42;;;;;;;4.68;2.10;;;14.10;99.90;;;;;;5003199;28;20026;-68
2022/07/05 02:24:08;;;;;;;1.58;1.48;;;14.00;99.90;;;;;;5002777;28;20034;-68
2022/07/05 02:26:34;;;;;;;3.35;1.40;;;14.10;99.90;;;;;;5002709;28;20030;-69
2022/07/05 02:29:02;;;;;;;1.92;1.38;;;14.00;99.90;;;;;;5003097;28;20053;-69
2022/07/05 02:31:28;;;;;;;3.75;1.63;;;14.00;99.90;;;;;;5002643;28;20090;-68
2022/07/05 02:33:53;;;;;;;2.53;1.73;;;14.00;99.90;;;;;;5003066;28;20027;-69
2022/07/05 02:36:19;;;;;;;2.10;1.27;;;14.00;99.90;;;;;;5002733;28;20018;-68
2022/07/05 02:38:45;;;;;;;10.70;2.08;;;13.90;99.90;;;;;;5002886;28;20090;-68
2022/07/05 02:41:11;;;;;;;1.90;1.40;;;13.90;99.90;;;;;;5003092;28;20026;-68
2022/07/05 02:43:38;;;;;;;1.77;1.40;;;13.90;99.90;;;;;;5002224;28;20038;-68
2022/07/05 02:46:04;;;;;;;11.48;2.15;;;13.90;99.90;;;;;;5002838;28;20023;-68
2022/07/05 02:48:30;;;;;;;3.30;2.03;;;13.90;99.90;;;;;;5002442;28;20055;-68
2022/07/05 02:50:56;;;;;;;3.17;1.70;;;13.90;99.90;;;;;;5001268;28;20018;-68
2022/07/05 02:53:24;;;;;;;7.25;2.28;;;13.90;99.90;;;;;;5002797;28;20037;-67
2022/07/05 02:55:49;;;;;;;4.90;2.00;;;13.90;99.90;;;;;;5002781;28;20061;-68
2022/07/05 02:58:16;;;;;;;2.97;1.75;;;13.90;99.90;;;;;;5002478;28;20038;-68
2022/07/05 03:00:47;;;;;;;3.65;2.05;;;13.90;99.90;;;;;;5002598;28;20034;-68
2022/07/05 03:03:12;;;;;;;3.58;2.05;;;13.90;99.90;;;;;;5002264;28;20033;-68
2022/07/05 03:05:38;;;;;;;2.85;1.63;;;13.80;99.90;;;;;;5002163;28;20038;-67
2022/07/05 03:08:04;;;;;;;9.02;1.95;;;13.80;99.90;;;;;;5002476;28;20165;-68
2022/07/05 03:10:30;;;;;;;3.05;2.00;;;13.80;99.90;;;;;;5000285;28;20050;-68
2022/07/05 03:12:55;;;;;;;2.22;1.80;;;13.70;99.90;;;;;;5002132;28;20030;-69
2022/07/05 03:15:21;;;;;;;3.42;1.65;;;13.70;99.90;;;;;;5002653;28;20032;-68
2022/07/05 03:17:47;;;;;;;4.70;2.47;;;13.70;99.90;;;;;;5002116;28;20030;-69
2022/07/05 03:20:13;;;;;;;15.45;2.17;;;13.70;99.90;;;;;;4994940;28;20041;-68
2022/07/05 03:22:39;;;;;;;5.00;2.05;;;13.70;99.90;;;;;;4994513;28;20045;-68
2022/07/05 03:25:05;;;;;;;2.88;1.60;;;13.70;99.90;;;;;;4995245;28;20039;-67
2022/07/05 03:27:31;;;;;;;4.20;2.33;;;13.70;99.90;;;;;;4997215;28;20030;-68
2022/07/05 03:29:57;;;;;;;4.05;2.20;;;13.70;99.90;;;;;;4998303;28;20041;-69
2022/07/05 03:32:23;;;;;;;5.68;2.15;;;13.70;99.90;;;;;;5001316;28;20110;-69
2022/07/05 03:34:48;;;;;;;3.28;2.08;;;13.70;99.90;;;;;;4996293;28;20038;-69
2022/07/05 03:37:14;;;;;;;3.92;2.20;;;13.60;99.90;;;;;;4997877;28;20146;-68
2022/07/05 03:39:40;;;;;;;6.07;2.38;;;13.60;99.90;;;;;;4995438;28;20662;-68
2022/07/05 03:42:06;;;;;;;8.73;2.13;;;13.60;99.90;;;;;;5000338;28;20121;-68
2022/07/05 03:44:32;;;;;;;3.85;2.17;;;13.50;99.90;;;;;;5001944;28;20056;-68
2022/07/05 03:46:59;;;;;;;6.50;2.58;;;13.50;99.90;;;;;;5001379;28;20027;-69
2022/07/05 03:49:25;;;;;;;4.22;2.53;;;13.50;99.90;;;;;;5002352;28;20027;-69
2022/07/05 03:51:50;;;;;;;16.27;2.63;;;13.50;99.90;;;;;;5001782;28;20053;-68
2022/07/05 03:54:16;;;;;;;4.30;1.92;;;13.50;99.90;;;;;;5001991;28;20031;-67
2022/07/05 03:56:42;;;;;;;3.45;1.95;;;13.50;99.90;;;;;;5000990;28;20197;-68
2022/07/05 03:59:07;;;;;;;4.40;2.17;;;13.50;99.90;;;;;;5000897;28;20053;-68
2022/07/05 04:01:33;;;;;;;3.33;2.05;;;13.50;99.90;;;;;;5001753;28;20105;-68
2022/07/05 04:03:58;;;;;;;4.38;1.98;;;13.60;99.90;;;;;;4999488;28;20588;-68
2022/07/05 04:06:24;;;;;;;3.25;1.67;;;13.60;99.90;;;;;;4998673;28;20030;-68
2022/07/05 04:08:50;;;;;;;2.63;1.60;;;13.60;99.90;;;;;;5001850;28;20090;-67
2022/07/05 04:11:16;;;;;;;4.68;2.67;;;13.60;99.90;;;;;;5001871;28;20026;-69
2022/07/05 04:13:42;;;;;;;3.38;1.90;;;13.60;99.90;;;;;;5002133;28;20050;-69
2022/07/05 04:16:08;;;;;;;23.50;2.17;;;13.60;99.90;;;;;;5004139;28;20029;-70
2022/07/05 04:18:34;;;;;;;3.60;2.17;;;13.60;99.90;;;;;;5005444;28;20018;-68
2022/07/05 04:21:00;;;;;;;5.68;2.63;;;13.60;99.90;;;;;;5005357;28;20030;-68
2022/07/05 04:23:25;;;;;;;6.35;2.85;;;13.60;99.90;;;;;;5003233;28;20038;-68
2022/07/05 04:25:51;;;;;;;2.22;1.90;;;13.60;99.90;;;;;;5002539;28;20038;-67
2022/07/05 04:28:17;;;;;;;4.90;1.83;;;13.70;99.90;;;;;;5003111;28;20038;-67
2022/07/05 04:30:42;;;;;;;6.03;2.40;;;13.70;99.90;;;;;;5003211;28;20478;-68
2022/07/05 04:33:08;;;;;;;2.67;1.80;;;13.80;99.90;;;;;;5004089;28;20576;-68
2022/07/05 04:35:33;;;;;;;3.50;2.28;;;13.80;99.90;;;;;;5004856;28;20053;-67
2022/07/05 04:37:59;;;;;;;3.50;1.88;;;13.90;99.90;;;;;;5004561;28;20096;-68
2022/07/05 04:40:25;;;;;;;11.07;2.25;;;14.00;99.90;;;;;;5005169;28;20034;-69
2022/07/05 04:42:51;;;;;;;2.63;1.67;;;14.00;99.90;;;;;;5004165;28;20410;-69
2022/07/05 04:45:16;;;;;;;6.20;2.28;;;14.00;99.90;;;;;;5005037;28;20073;-67
2022/07/05 04:47:42;;;;;;;3.55;2.10;;;14.10;99.90;;;;;;5004507;28;20033;-68
2022/07/05 04:50:08;;;;;;;4.68;1.65;;;14.10;99.90;;;;;;5002835;28;20029;-67
2022/07/05 04:52:34;;;;;;;6.53;2.25;;;14.10;99.90;;;;;;5001941;28;20109;-69
2022/07/05 04:55:00;;;;;;;7.90;1.88;;;14.20;99.90;;;;;;5002478;28;20073;-68
2022/07/05 04:57:25;;;;;;;3.20;1.98;;;14.20;99.90;;;;;;5003467;28;20034;-68
2022/07/05 04:59:51;;;;;;;4.10;2.30;;;14.20;99.90;;;;;;5003918;28;20042;-67
2022/07/05 05:02:16;;;;;;;2.60;1.77;;;14.30;99.90;;;;;;5004857;28;20550;-66
2022/07/05 05:04:42;;;;;;;6.05;1.95;;;14.40;99.90;;;;;;5004407;28;20100;-68
2022/07/05 05:07:08;;;;;;;2.63;1.73;;;14.40;99.90;;;;;;5004722;28;20623;-68
2022/07/05 05:09:34;;;;;;;4.63;2.17;;;14.40;99.90;;;;;;5004436;28;20026;-66
2022/07/05 05:11:59;;;;;;;3.72;1.63;;;14.50;99.90;;;;;;5004200;28;20041;-67
2022/07/05 05:14:25;;;;;;;2.95;1.90;;;14.50;99.90;;;;;;5004173;28;20368;-69
2022/07/05 05:16:50;;;;;;;6.93;2.05;;;14.60;99.90;;;;;;5003378;28;20039;-67
2022/07/05 05:19:16;;;;;;;2.95;1.67;;;14.60;99.90;;;;;;5003480;28;20089;-67
2022/07/05 05:21:41;;;;;;;3.55;1.83;;;14.70;99.90;;;;;;5004074;28;20106;-69
2022/07/05 05:24:07;;;;;;;2.70;1.40;;;14.70;99.90;;;;;;5004021;28;20045;-69
2022/07/05 05:26:33;;;;;;;2.03;1.33;;;14.80;99.90;;;;;;5003928;28;20037;-66
2022/07/05 05:28:59;;;;;;;4.15;1.63;;;14.80;99.90;;;;;;5002423;28;20022;-69
2022/07/05 05:31:25;;;;;;;2.35;1.30;;;14.90;99.90;;;;;;5002665;28;20029;-69
2022/07/05 05:33:50;;;;;;;4.45;1.98;;;14.90;99.90;;;;;;5003803;28;20093;-72
2022/07/05 05:36:16;;;;;;;1.90;1.42;;;15.00;99.90;;;;;;5003697;28;20026;-66
2022/07/05 05:38:41;;;;;;;1.73;1.40;;;15.00;99.90;;;;;;5002311;28;20533;-65
2022/07/05 05:41:07;;;;;;;3.05;1.42;;;15.10;99.90;;;;;;5003769;28;20046;-66
2022/07/05 05:43:33;;;;;;;1.83;1.13;;;15.10;99.90;;;;;;5003798;28;20121;-68
2022/07/05 05:45:58;;;;;;;2.25;1.30;;;15.10;99.90;;;;;;5002820;28;20034;-68
2022/07/05 05:48:24;;;;;;;2.25;1.30;;;15.10;99.90;;;;;;5003826;28;20455;-68
2022/07/05 05:50:50;;;;;;;5.13;1.63;;;15.20;99.90;;;;;;5004214;28;20019;-69
2022/07/05 05:53:16;;;;;;;2.35;1.42;;;15.30;99.90;;;;;;5002077;28;20581;-68
2022/07/05 05:55:42;;;;;;;2.58;1.02;;;15.30;99.90;;;;;;5003415;28;20064;-68
2022/07/05 05:58:16;;;;;;;1.77;1.00;;;15.40;99.90;;;;;;5003800;28;20037;-67
2022/07/05 06:00:43;;;;;;;3.15;1.77;;;15.40;99.90;;;;;;5003193;28;20367;-69
2022/07/05 06:03:09;;;;;;;1.60;0.95;;;15.40;99.90;;;;;;5002851;28;20021;-68
2022/07/05 06:05:35;;;;;;;2.25;1.70;;;15.50;99.90;;;;;;5002517;28;20046;-68
2022/07/05 06:08:01;;;;;;;6.63;1.60;;;15.50;99.90;;;;;;5002185;28;20045;-67
2022/07/05 06:10:31;;;;;;;1.88;0.90;;;15.50;99.90;;;;;;5002992;28;20121;-69
2022/07/05 06:13:00;;;;;;;1.85;1.20;;;15.60;99.90;;;;;;5003662;28;20045;-70
2022/07/05 06:15:26;;;;;;;1.63;1.10;;;15.60;99.90;;;;;;5002061;28;20026;-67
2022/07/05 06:17:52;;;;;;;4.53;1.08;;;15.60;99.90;;;;;;5003308;28;20034;-72
2022/07/05 06:20:20;;;;;;;3.08;1.23;;;15.70;99.90;;;;;;5002164;28;20046;-68
2022/07/05 06:22:46;;;;;;;1.73;1.00;;;15.70;99.90;;;;;;5001981;28;20053;-67
2022/07/05 06:25:12;;;;;;;1.95;1.02;;;15.80;99.90;;;;;;4999172;28;20046;-68
2022/07/05 06:27:42;;;;;;;1.25;0.60;;;15.90;99.90;;;;;;5001019;28;20072;-68
2022/07/05 06:30:09;;;;;;;2.40;1.23;;;16.00;99.90;;;;;;4999757;28;20034;-69
2022/07/05 06:32:35;;;;;;;1.42;0.95;;;16.00;99.90;;;;;;4999233;28;20054;-67
2022/07/05 06:35:01;;;;;;;1.55;0.85;;;16.10;99.90;;;;;;4999577;28;20083;-68
2022/07/05 06:37:27;;;;;;;7.97;1.05;;;16.20;99.90;;;;;;5000214;28;20042;-71
2022/07/05 06:39:52;;;;;;;1.20;0.90;;;16.20;99.90;;;;;;5000400;28;20491;-69
2022/07/05 06:42:18;;;;;;;2.65;1.15;;;16.30;99.90;;;;;;4999582;28;20026;-70
2022/07/05 06:44:44;;;;;;;1.20;0.80;;;16.30;99.90;;;;;;4998356;28;20042;-69
2022/07/05 06:47:10;;;;;;;5.35;0.82;;;16.40;99.90;;;;;;5000898;28;20038;-68
2022/07/05 06:49:35;;;;;;;1.40;0.85;;;16.40;99.90;;;;;;5000748;28;20027;-67
2022/07/05 06:52:01;;;;;;;4.28;1.15;;;16.50;99.90;;;;;;5000569;28;20027;-70
2022/07/05 06:54:27;;;;;;;1.80;1.15;;;16.70;99.90;;;;;;4998280;28;20089;-68
2022/07/05 06:56:55;;;;;;;0.60;0.57;;;16.70;99.90;;;;;;4998906;28;20063;-69
2022/07/05 06:59:21;;;;;;;2.00;0.55;;;16.70;99.90;;;;;;5001487;28;20030;-68
2022/07/05 07:01:47;;;;;;;1.33;0.50;;;16.80;99.90;;;;;;5001337;28;20030;-66
2022/07/05 07:04:12;;;;;;;1.85;0.80;;;16.90;99.90;;;;;;5000559;28;20044;-69
2022/07/05 07:06:38;;;;;;;0.50;0.30;;;17.00;99.90;;;;;;4999709;28;20054;-70
2022/07/05 07:09:20;;;;;;;1.27;0.80;;;17.00;99.90;;;;;;4999615;28;20049;-70
2022/07/05 07:11:46;;;;;;;2.03;0.77;;;17.10;99.90;;;;;;4999815;28;20030;-67
2022/07/05 07:14:12;;;;;;;1.85;0.63;;;17.10;99.90;;;;;;4999004;28;20026;-67
2022/07/05 07:16:37;;;;;;;3.30;0.63;;;17.20;99.90;;;;;;5000281;28;20052;-69
2022/07/05 07:19:03;;;;;;;4.90;0.88;;;17.30;99.90;;;;;;5000514;28;20042;-71
2022/07/05 07:21:28;;;;;;;0.55;0.40;;;17.40;99.90;;;;;;4999256;28;20037;-69
2022/07/05 07:23:54;;;;;;;0.98;0.30;;;17.40;99.90;;;;;;5000196;28;20073;-69
2022/07/05 07:26:19;;;;;;;1.98;0.70;;;17.50;99.90;;;;;;5000495;28;20035;-69
2022/07/05 07:28:45;;;;;;;5.13;1.02;;;17.60;99.90;;;;;;5001161;28;20386;-68
2022/07/05 07:31:11;;;;;;;0.98;0.68;;;17.60;99.90;;;;;;4999667;28;20061;-71
2022/07/05 07:33:36;;;;;;;0.85;0.57;;;17.60;99.90;;;;;;4999251;28;20026;-72
2022/07/05 07:36:03;;;;;;;0.98;0.50;;;17.70;99.90;;;;;;5000333;28;20031;-69
2022/07/05 07:38:28;;;;;;;1.65;0.55;;;17.70;99.90;;;;;;4998965;28;20050;-70
2022/07/05 07:40:54;;;;;;;1.33;0.47;;;17.80;99.90;;;;;;5000389;28;20094;-70
2022/07/05 07:43:20;;;;;;;8.68;1.10;;;17.90;99.90;;;;;;5000955;28;20037;-69
2022/07/05 07:45:45;;;;;;;1.17;0.50;;;17.90;99.90;;;;;;4998183;28;20030;-68
2022/07/05 07:48:11;;;;;;;0.52;0.40;;;17.90;99.90;;;;;;4998155;28;20026;-67
2022/07/05 07:50:37;;;;;;;16.35;0.50;;;18.00;99.90;;;;;;5003535;28;20364;-71
2022/07/05 07:53:02;;;;;;;3.03;0.40;;;18.10;99.90;;;;;;5004088;28;20041;-68
2022/07/05 07:55:29;;;;;;;4.43;0.40;;;18.20;99.90;;;;;;5004483;28;20032;-69
2022/07/05 07:57:54;;;;;;;2.42;0.70;;;18.20;99.90;;;;;;5006059;28;20101;-71
2022/07/05 08:00:20;;;;;;;0.75;0.30;;;18.20;99.90;;;;;;5004681;28;20038;-71
2022/07/05 08:02:46;;;;;;;0.63;0.47;;;18.30;99.90;;;;;;5005527;28;20026;-68
2022/07/05 08:05:11;;;;;;;0.68;0.30;;;18.40;99.90;;;;;;5005612;28;20069;-68
2022/07/05 08:07:37;;;;;;;0.30;0.30;;;18.50;99.90;;;;;;5004820;28;20046;-68
2022/07/05 08:10:07;;;;;;;1.98;0.68;;;18.70;99.90;;;;;;5005753;28;20044;-68
2022/07/05 08:12:33;;;;;;;0.60;0.28;;;18.70;99.90;;;;;;5005341;28;20022;-68
2022/07/05 08:14:59;;;;;;;0.40;0.10;;;18.80;99.90;;;;;;5005495;28;20018;-70
2022/07/05 08:17:24;;;;;;;0.40;0.20;;;18.80;99.90;;;;;;5005761;28;20023;-70
2022/07/05 08:22:34;;;;;;;0.30;0.30;;;18.70;99.90;;;;;;5004847;28;20409;-69
2022/07/05 08:25:00;;;;;;;0.20;0.10;;;18.70;99.90;;;;;;5005564;28;20058;-70
2022/07/05 08:27:25;;;;;;;0.40;0.30;;;18.60;99.90;;;;;;5005178;28;20027;-69
2022/07/05 08:29:51;;;;;;;2.20;0.20;;;18.70;99.90;;;;;;5005754;28;20027;-70
2022/07/05 08:32:17;;;;;;;0.95;0.28;;;18.80;99.90;;;;;;5005812;28;20412;-70
2022/07/05 08:34:43;;;;;;;1.02;0.40;;;18.90;99.90;;;;;;5004270;28;20083;-70
2022/07/05 08:37:09;;;;;;;0.32;0.20;;;19.00;99.90;;;;;;5005032;28;20026;-69
2022/07/05 08:39:35;;;;;;;0.60;0.20;;;19.10;99.90;;;;;;5005023;28;20152;-70
2022/07/05 08:42:01;;;;;;;0.10;0.10;;;19.30;99.90;;;;;;5004987;28;20018;-70
2022/07/05 08:44:29;;;;;;;0.45;0.32;;;19.30;99.90;;;;;;5004983;28;20042;-70
2022/07/05 08:46:56;;;;;;;2.72;0.43;;;19.30;99.90;;;;;;5001997;28;20481;-72
2022/07/05 08:49:26;;;;;;;0.55;0.22;;;19.30;99.90;;;;;;5002768;28;20041;-69
2022/07/05 08:51:53;;;;;;;0.10;0.00;;;19.50;99.90;;;;;;5003539;28;20026;-68
2022/07/05 08:54:21;;;;;;;0.40;0.10;;;19.50;99.90;;;;;;5004716;28;20394;-68
2022/07/05 08:56:46;;;;;;;0.10;0.10;;;19.40;99.90;;;;;;5004742;28;20019;-68
2022/07/05 08:59:12;;;;;;;0.25;0.20;;;19.40;99.90;;;;;;5004833;28;20082;-69
2022/07/05 09:01:39;;;;;;;2.30;0.28;;;19.40;99.90;;;;;;5004258;28;20018;-69
2022/07/05 09:04:07;;;;;;;0.80;0.40;;;19.30;99.90;;;;;;5004346;28;20474;-69
2022/07/05 09:06:37;;;;;;;1.27;0.35;;;19.40;99.90;;;;;;5002476;28;20033;-69
2022/07/05 09:09:03;;;;;;;0.10;0.10;;;19.60;99.90;;;;;;5001821;28;20049;-70
2022/07/05 09:11:40;;;;;;;0.20;0.20;;;19.70;99.90;;;;;;4999588;28;20061;-69
2022/07/05 09:14:17;;;;;;;0.43;0.28;;;19.60;99.90;;;;;;4998740;28;20022;-69
2022/07/05 09:16:43;;;;;;;0.10;0.10;;;19.50;99.90;;;;;;5002137;28;20019;-66
2022/07/05 09:19:08;;;;;;;0.68;0.03;;;19.40;99.90;;;;;;5001781;28;20036;-69
2022/07/05 09:21:35;;;;;;;0.52;0.20;;;19.40;99.90;;;;;;5001039;28;20057;-68
2022/07/05 09:24:07;;;;;;;1.65;0.30;;;19.40;99.90;;;;;;4997814;28;20461;-70
2022/07/05 09:26:35;;;;;;;0.22;0.20;;;19.60;99.90;;;;;;5000442;28;20738;-68
2022/07/05 09:29:01;;;;;;;6.07;0.40;;;19.80;99.90;;;;;;5001880;28;20034;-68
2022/07/05 09:31:28;;;;;;;0.20;0.20;;;19.90;99.90;;;;;;5002399;28;20034;-69
2022/07/05 09:33:54;;;;;;;0.22;0.10;;;20.00;99.90;;;;;;5002429;28;20698;-69
2022/07/05 09:36:19;;;;;;;1.17;0.40;;;20.10;99.90;;;;;;5001040;28;20026;-68
2022/07/05 09:38:51;;;;;;;1.05;0.35;;;20.10;99.90;;;;;;5002079;28;20053;-69
2022/07/05 09:41:17;;;;;;;0.20;0.20;;;20.20;99.90;;;;;;5001836;28;20080;-71
2022/07/05 09:43:43;;;;;;;0.43;0.30;;;20.20;99.90;;;;;;5003255;28;20491;-69
2022/07/05 09:46:08;;;;;;;0.82;0.47;;;20.20;99.90;;;;;;5003234;28;20030;-69
2022/07/05 09:48:34;;;;;;;0.98;0.35;;;20.10;99.90;;;;;;5003152;28;20082;-70
2022/07/05 09:51:11;;;;;;;0.70;0.32;;;20.10;99.90;;;;;;5002048;28;20105;-70
2022/07/05 09:53:45;;;;;;;0.13;0.13;;;20.20;99.90;;;;;;5002954;28;20023;-66
2022/07/05 09:56:11;;;;;;;0.82;0.28;;;20.40;99.90;;;;;;5002967;28;20026;-69
2022/07/05 09:58:37;;;;;;;0.45;0.20;;;20.70;99.90;;;;;;5002776;28;20061;-70
2022/07/05 10:01:23;;;;;;;0.38;0.35;;;20.70;99.90;;;;;;5003732;28;20045;-69
2022/07/05 10:04:01;;;;;;;0.47;0.35;;;20.60;99.90;;;;;;5003759;28;20105;-68
2022/07/05 10:06:28;;;;;;;0.22;0.13;;;20.40;99.90;;;;;;5002088;28;20034;-70
2022/07/05 10:08:55;;;;;;;2.47;0.22;;;20.30;99.90;;;;;;5003312;28;20026;-69
2022/07/05 10:11:22;;;;;;;0.17;0.17;;;20.30;99.90;;;;;;5001325;28;20030;-69
2022/07/05 10:13:50;;;;;;;0.68;0.40;;;20.30;99.90;;;;;;5001791;28;20049;-68
2022/07/05 10:16:17;;;;;;;7.90;0.50;;;20.50;99.90;;;;;;5001452;28;20022;-68
2022/07/05 10:18:44;;;;;;;5.53;0.47;;;20.80;99.90;;;;;;4996939;28;20057;-67
2022/07/05 10:21:14;;;;;;;10.00;0.57;;;20.90;99.90;;;;;;5000949;28;20160;-66
2022/07/05 10:23:53;;;;;;;0.73;0.38;;;21.00;99.90;;;;;;5001034;28;20096;-68
2022/07/05 10:26:20;;;;;;;0.65;0.35;;;21.00;99.90;;;;;;4997667;28;20035;-69
2022/07/05 10:28:49;;;;;;;0.98;0.32;;;20.80;99.90;;;;;;4999876;28;20026;-69
2022/07/05 10:31:16;;;;;;;1.10;0.63;;;20.70;99.90;;;;;;5000027;28;20038;-69
2022/07/05 10:33:42;;;;;;;0.20;0.20;;;20.80;99.90;;;;;;5002908;28;20122;-70
2022/07/05 10:36:10;;;;;;;1.33;0.55;;;21.00;99.90;;;;;;5000687;28;20030;-67
2022/07/05 10:38:38;;;;;;;0.32;0.25;;;21.10;99.90;;;;;;4998468;28;20402;-69
2022/07/05 10:41:07;;;;;;;5.00;0.63;;;21.20;99.90;;;;;;5000844;28;20059;-70
2022/07/05 10:43:33;;;;;;;0.40;0.28;;;21.40;99.90;;;;;;5001827;28;20025;-70
2022/07/05 10:45:59;;;;;;;1.55;0.35;;;21.40;99.90;;;;;;5001588;28;20026;-70
2022/07/05 10:48:26;;;;;;;2.17;0.65;;;21.40;99.90;;;;;;5001026;28;20061;-66
2022/07/05 10:50:59;;;;;;;0.28;0.20;;;21.30;99.90;;;;;;5002331;28;20030;-66
2022/07/05 10:53:48;;;;;;;5.63;0.63;;;21.30;99.90;;;;;;5002596;28;20030;-68
2022/07/05 10:56:14;;;;;;;1.02;0.47;;;21.30;99.90;;;;;;5000466;28;20057;-68
2022/07/05 10:58:44;;;;;;;1.00;0.20;;;21.40;99.90;;;;;;5001314;28;20387;-69
2022/07/05 11:01:18;;;;;;;0.70;0.30;;;21.60;99.90;;;;;;5002773;28;20030;-66
2022/07/05 11:03:49;;;;;;;0.63;0.28;;;21.70;99.90;;;;;;5001037;28;20074;-68
2022/07/05 11:06:23;;;;;;;0.68;0.20;;;21.60;99.90;;;;;;5002392;28;20048;-72
2022/07/05 11:09:02;;;;;;;0.20;0.20;;;21.40;99.90;;;;;;5002376;28;20030;-68
2022/07/05 11:11:35;;;;;;;0.47;0.25;;;21.30;99.90;;;;;;5002040;28;20027;-68
2022/07/05 11:14:03;;;;;;;4.32;0.52;;;21.20;99.90;;;;;;5002409;28;20049;-65
2022/07/05 11:16:31;;;;;;;0.63;0.32;;;21.30;99.90;;;;;;5002099;28;20081;-68
2022/07/05 11:19:08;;;;;;;0.60;0.32;;;21.70;99.90;;;;;;5002081;28;20079;-68
2022/07/05 11:21:35;;;;;;;0.75;0.30;;;21.90;99.90;;;;;;5002324;28;20747;-65
2022/07/05 11:24:22;;;;;;;0.88;0.43;;;21.90;99.90;;;;;;5001644;28;20034;-66
2022/07/05 11:26:49;;;;;;;2.50;0.57;;;22.10;99.90;;;;;;5002354;28;20073;-66
2022/07/05 11:29:41;;;;;;;0.35;0.30;;;22.20;99.90;;;;;;5001180;28;21544;-67
2022/07/05 11:32:09;;;;;;;0.30;0.30;;;22.20;99.90;;;;;;5001607;28;20073;-68
2022/07/05 11:34:36;;;;;;;0.43;0.35;;;22.30;99.90;;;;;;5001808;28;20015;-69
2022/07/05 11:37:13;;;;;;;0.98;0.47;;;22.30;99.90;;;;;;5001985;28;20086;-68
2022/07/05 11:39:40;;;;;;;0.30;0.28;;;22.30;99.90;;;;;;5001991;28;20030;-70
2022/07/05 11:42:05;;;;;;;6.03;0.32;;;22.60;99.90;;;;;;5001945;28;20022;-67
2022/07/05 11:44:36;;;;;;;0.55;0.40;;;22.60;99.90;;;;;;4998087;28;20069;-68
2022/07/05 11:47:02;;;;;;;1.88;0.43;;;22.50;99.90;;;;;;5000719;28;20026;-68
2022/07/05 11:49:27;;;;;;;3.22;0.52;;;22.50;99.90;;;;;;5000903;28;20074;-68
2022/07/05 11:52:02;;;;;;;0.77;0.22;;;22.40;99.90;;;;;;5001507;28;20069;-71
2022/07/05 11:54:33;;;;;;;0.82;0.40;;;22.40;99.90;;;;;;4999363;28;20038;-69
2022/07/05 11:57:00;;;;;;;0.60;0.40;;;22.30;99.90;;;;;;5001625;28;20034;-67
2022/07/05 11:59:26;;;;;;;0.60;0.40;;;22.10;99.90;;;;;;5001998;28;20030;-68
2022/07/05 12:01:53;;;;;;;0.30;0.20;;;22.10;99.90;;;;;;5001993;28;20019;-70
2022/07/05 12:04:26;;;;;;;0.30;0.22;;;22.00;99.90;;;;;;4999931;28;20070;-67
2022/07/05 12:06:51;;;;;;;0.15;0.15;;;21.80;99.90;;;;;;4999402;28;20038;-67
2022/07/05 12:09:24;;;;;;;0.03;0.03;;;21.70;99.90;;;;;;5001959;28;20026;-66
2022/07/05 12:14:49;;;;;;;0.82;0.45;;;21.50;99.90;;;;;;5001647;28;20029;-66
2022/07/05 12:17:19;;;;;;;0.55;0.40;;;21.40;99.90;;;;;;5001978;28;20027;-68
2022/07/05 12:19:45;;;;;;;2.03;0.80;;;21.40;99.90;;;;;;5001585;28;20023;-67
2022/07/05 12:22:12;;;;;;;0.75;0.30;;;21.40;99.90;;;;;;5001002;28;20057;-69
2022/07/05 12:24:38;;;;;;;1.58;0.60;;;21.40;99.90;;;;;;5000217;28;20137;-69
2022/07/05 12:27:05;;;;;;;1.30;0.30;;;21.40;99.90;;;;;;4998940;28;20030;-68
2022/07/05 12:29:30;;;;;;;0.70;0.30;;;21.80;99.90;;;;;;4999033;28;20034;-69
2022/07/05 12:32:03;;;;;;;1.85;0.45;;;22.30;99.90;;;;;;4999692;28;20390;-67
2022/07/05 12:34:30;;;;;;;1.25;0.65;;;22.60;99.90;;;;;;5000119;28;20037;-68
2022/07/05 12:36:57;;;;;;;0.52;0.30;;;22.80;99.90;;;;;;5001672;28;20026;-70
2022/07/05 12:39:22;;;;;;;2.97;0.57;;;23.00;99.90;;;;;;5003482;28;20097;-69
2022/07/05 12:41:48;;;;;;;1.20;0.30;;;23.20;99.90;;;;;;5003358;28;20371;-68
2022/07/05 12:44:19;;;;;;;1.38;0.38;;;23.50;99.90;;;;;;5004940;28;20039;-68
2022/07/05 12:46:46;;;;;;;0.63;0.30;;;23.80;99.90;;;;;;5004772;28;20493;-69
2022/07/05 12:49:13;;;;;;;0.22;0.13;;;23.90;99.90;;;;;;5003272;28;20033;-68
2022/07/05 12:52:02;;;;;;;0.40;0.20;;;23.70;99.90;;;;;;5002908;28;20031;-69
2022/07/05 13:00:16;;;;;;;0.13;0.13;;;22.70;99.90;;;;;;5002122;28;20414;-70